sensor_id;sensor_type;location;lat;lon;timestamp;temperature;humidity
39875;DHT22;25547;52.530;13.194;2023-01-08T00:01:09;8.70;99.90
39875;DHT22;25547;52.530;13.194;2023-01-08T00:03:35;8.70;99.90
39875;DHT22;25547;52.530;13.194;2023-01-08T00:06:09;8.70;99.90
39875;DHT22;25547;52.530;13.194;2023-01-08T00:08:35;8.70;99.90
39875;DHT22;25547;52.530;13.194;2023-01-08T00:11:00;8.70;99.90
39875;DHT22;25547;52.530;13.194;2023-01-08T00:13:28;8.70;99.90
39875;DHT22;25547;52.530;13.194;2023-01-08T00:15:54;8.70;99.90
39875;DHT22;25547;52.530;13.194;2023-01-08T00:18:20;8.70;99.90
39875;DHT22;25547;52.530;13.194;2023-01-08T00:20:46;8.70;99.90
39875;DHT22;25547;52.530;13.194;2023-01-08T00:23:18;8.70;99.90
39875;DHT22;25547;52.530;13.194;2023-01-08T00:25:44;8.70;99.90
39875;DHT22;25547;52.530;13.194;2023-01-08T00:28:10;8.70;99.90
39875;DHT22;25547;52.530;13.194;2023-01-08T00:30:36;8.70;99.90
39875;DHT22;25547;52.530;13.194;2023-01-08T00:33:02;8.70;99.90
39875;DHT22;25547;52.530;13.194;2023-01-08T00:35:27;8.70;99.90
39875;DHT22;25547;52.530;13.194;2023-01-08T00:37:53;8.70;99.90
39875;DHT22;25547;52.530;13.194;2023-01-08T00:40:19;8.70;99.90
39875;DHT22;25547;52.530;13.194;2023-01-08T00:42:44;8.70;99.90
39875;DHT22;25547;52.530;13.194;2023-01-08T00:45:10;8.60;99.90
39875;DHT22;25547;52.530;13.194;2023-01-08T00:47:36;8.60;99.90
39875;DHT22;25547;52.530;13.194;2023-01-08T00:50:04;8.60;99.90
39875;DHT22;25547;52.530;13.194;2023-01-08T00:52:32;8.50;99.90
39875;DHT22;25547;52.530;13.194;2023-01-08T00:54:58;8.50;99.90
39875;DHT22;25547;52.530;13.194;2023-01-08T00:57:26;8.50;99.90
39875;DHT22;25547;52.530;13.194;2023-01-08T00:59:51;8.50;99.90
39875;DHT22;25547;52.530;13.194;2023-01-08T01:02:19;8.50;99.90
39875;DHT22;25547;52.530;13.194;2023-01-08T01:04:44;8.40;99.90
39875;DHT22;25547;52.530;13.194;2023-01-08T01:07:13;8.40;99.90
39875;DHT22;25547;52.530;13.194;2023-01-08T01:09:38;8.40;99.90
39875;DHT22;25547;52.530;13.194;2023-01-08T01:12:04;8.30;99.90
39875;DHT22;25547;52.530;13.194;2023-01-08T01:14:30;8.30;99.90
39875;DHT22;25547;52.530;13.194;2023-01-08T01:16:56;8.20;99.90
39875;DHT22;25547;52.530;13.194;2023-01-08T01:19:22;8.20;99.90
39875;DHT22;25547;52.530;13.194;2023-01-08T01:21:50;8.20;99.90
39875;DHT22;25547;52.530;13.194;2023-01-08T01:24:15;8.20;99.90
39875;DHT22;25547;52.530;13.194;2023-01-08T01:26:43;8.20;99.90
39875;DHT22;25547;52.530;13.194;2023-01-08T01:29:09;8.20;99.90
39875;DHT22;25547;52.530;13.194;2023-01-08T01:31:35;8.10;99.90
39875;DHT22;25547;52.530;13.194;2023-01-08T01:34:00;8.10;99.90
39875;DHT22;25547;52.530;13.194;2023-01-08T01:36:26;8.10;99.90
39875;DHT22;25547;52.530;13.194;2023-01-08T01:38:54;8.10;99.90
39875;DHT22;25547;52.530;13.194;2023-01-08T01:41:27;8.00;99.90
39875;DHT22;25547;52.530;13.194;2023-01-08T01:43:59;8.00;99.90
39875;DHT22;25547;52.530;13.194;2023-01-08T01:48:57;7.90;99.90
39875;DHT22;25547;52.530;13.194;2023-01-08T01:51:30;7.90;99.90
39875;DHT22;25547;52.530;13.194;2023-01-08T01:54:00;7.90;99.90
39875;DHT22;25547;52.530;13.194;2023-01-08T01:56:28;7.80;99.90
39875;DHT22;25547;52.530;13.194;2023-01-08T01:58:55;7.80;99.90
39875;DHT22;25547;52.530;13.194;2023-01-08T02:01:22;7.80;99.90
39875;DHT22;25547;52.530;13.194;2023-01-08T02:03:47;7.70;99.90
39875;DHT22;25547;52.530;13.194;2023-01-08T02:20:26;7.60;99.90
39875;DHT22;25547;52.530;13.194;2023-01-08T02:28:37;7.50;99.90
39875;DHT22;25547;52.530;13.194;2023-01-08T02:31:05;7.50;99.90
39875;DHT22;25547;52.530;13.194;2023-01-08T02:33:31;7.50;99.90
39875;DHT22;25547;52.530;13.194;2023-01-08T02:36:25;7.50;99.90
39875;DHT22;25547;52.530;13.194;2023-01-08T02:42:10;7.40;99.90
39875;DHT22;25547;52.530;13.194;2023-01-08T02:45:06;7.40;99.90
39875;DHT22;25547;52.530;13.194;2023-01-08T02:47:41;7.40;99.90
39875;DHT22;25547;52.530;13.194;2023-01-08T02:55:36;7.30;99.90
39875;DHT22;25547;52.530;13.194;2023-01-08T02:58:04;7.30;99.90
39875;DHT22;25547;52.530;13.194;2023-01-08T03:00:32;7.30;99.90
39875;DHT22;25547;52.530;13.194;2023-01-08T03:03:10;7.30;99.90
39875;DHT22;25547;52.530;13.194;2023-01-08T03:05:39;7.30;99.90
39875;DHT22;25547;52.530;13.194;2023-01-08T03:08:08;7.20;99.90
39875;DHT22;25547;52.530;13.194;2023-01-08T03:10:36;7.20;99.90
39875;DHT22;25547;52.530;13.194;2023-01-08T03:13:10;7.20;99.90
39875;DHT22;25547;52.530;13.194;2023-01-08T03:15:44;7.20;99.90
39875;DHT22;25547;52.530;13.194;2023-01-08T03:18:14;7.10;99.90
39875;DHT22;25547;52.530;13.194;2023-01-08T03:20:40;7.10;99.90
39875;DHT22;25547;52.530;13.194;2023-01-08T03:23:12;7.10;99.90
39875;DHT22;25547;52.530;13.194;2023-01-08T03:25:41;7.10;99.90
39875;DHT22;25547;52.530;13.194;2023-01-08T03:28:16;7.10;99.90
39875;DHT22;25547;52.530;13.194;2023-01-08T03:30:46;7.10;99.90
39875;DHT22;25547;52.530;13.194;2023-01-08T03:33:17;7.10;99.90
39875;DHT22;25547;52.530;13.194;2023-01-08T03:35:46;7.10;99.90
39875;DHT22;25547;52.530;13.194;2023-01-08T03:38:25;7.10;99.90
39875;DHT22;25547;52.530;13.194;2023-01-08T03:40:55;7.10;99.90
39875;DHT22;25547;52.530;13.194;2023-01-08T03:43:22;7.10;99.90
39875;DHT22;25547;52.530;13.194;2023-01-08T03:46:02;7.10;99.90
39875;DHT22;25547;52.530;13.194;2023-01-08T03:48:30;7.10;99.90
39875;DHT22;25547;52.530;13.194;2023-01-08T03:50:59;7.10;99.90
39875;DHT22;25547;52.530;13.194;2023-01-08T03:53:27;7.10;99.90
39875;DHT22;25547;52.530;13.194;2023-01-08T03:55:55;7.10;99.90
39875;DHT22;25547;52.530;13.194;2023-01-08T03:58:24;7.10;99.90
39875;DHT22;25547;52.530;13.194;2023-01-08T04:00:54;7.10;99.90
39875;DHT22;25547;52.530;13.194;2023-01-08T04:03:20;7.10;99.90
39875;DHT22;25547;52.530;13.194;2023-01-08T04:05:45;7.10;99.90
39875;DHT22;25547;52.530;13.194;2023-01-08T04:08:11;7.00;99.90
39875;DHT22;25547;52.530;13.194;2023-01-08T04:10:39;7.10;99.90
39875;DHT22;25547;52.530;13.194;2023-01-08T04:13:05;7.10;99.90
39875;DHT22;25547;52.530;13.194;2023-01-08T04:15:30;7.00;99.90
39875;DHT22;25547;52.530;13.194;2023-01-08T04:17:58;7.00;99.90
39875;DHT22;25547;52.530;13.194;2023-01-08T04:20:26;7.00;99.90
39875;DHT22;25547;52.530;13.194;2023-01-08T04:22:54;7.00;99.90
39875;DHT22;25547;52.530;13.194;2023-01-08T04:25:20;7.00;99.90
39875;DHT22;25547;52.530;13.194;2023-01-08T04:27:45;6.90;99.90
39875;DHT22;25547;52.530;13.194;2023-01-08T04:30:11;6.90;99.90
39875;DHT22;25547;52.530;13.194;2023-01-08T04:32:37;6.90;99.90
39875;DHT22;25547;52.530;13.194;2023-01-08T04:35:03;6.90;99.90
39875;DHT22;25547;52.530;13.194;2023-01-08T04:37:28;6.90;99.90
39875;DHT22;25547;52.530;13.194;2023-01-08T04:39:54;6.90;99.90
39875;DHT22;25547;52.530;13.194;2023-01-08T04:42:19;6.90;99.90
39875;DHT22;25547;52.530;13.194;2023-01-08T04:44:45;6.80;99.90
39875;DHT22;25547;52.530;13.194;2023-01-08T04:47:11;6.80;99.90
39875;DHT22;25547;52.530;13.194;2023-01-08T04:49:39;6.80;99.90
39875;DHT22;25547;52.530;13.194;2023-01-08T04:52:04;6.80;99.90
39875;DHT22;25547;52.530;13.194;2023-01-08T04:54:32;6.80;99.90
39875;DHT22;25547;52.530;13.194;2023-01-08T04:57:00;6.80;99.90
39875;DHT22;25547;52.530;13.194;2023-01-08T04:59:28;6.80;99.90
39875;DHT22;25547;52.530;13.194;2023-01-08T05:01:54;6.90;99.90
39875;DHT22;25547;52.530;13.194;2023-01-08T05:04:24;6.90;99.90
39875;DHT22;25547;52.530;13.194;2023-01-08T05:06:52;6.90;99.90
39875;DHT22;25547;52.530;13.194;2023-01-08T05:09:18;7.00;99.90
39875;DHT22;25547;52.530;13.194;2023-01-08T05:11:43;6.90;99.90
39875;DHT22;25547;52.530;13.194;2023-01-08T05:14:11;7.00;99.90
39875;DHT22;25547;52.530;13.194;2023-01-08T05:16:37;7.10;99.90
39875;DHT22;25547;52.530;13.194;2023-01-08T05:19:03;7.10;99.90
39875;DHT22;25547;52.530;13.194;2023-01-08T05:21:28;7.10;99.90
39875;DHT22;25547;52.530;13.194;2023-01-08T05:23:56;7.20;99.90
39875;DHT22;25547;52.530;13.194;2023-01-08T05:26:22;7.20;99.90
39875;DHT22;25547;52.530;13.194;2023-01-08T05:28:47;7.20;99.90
39875;DHT22;25547;52.530;13.194;2023-01-08T05:31:13;7.10;99.90
39875;DHT22;25547;52.530;13.194;2023-01-08T05:33:42;7.20;99.90
39875;DHT22;25547;52.530;13.194;2023-01-08T05:36:10;7.20;99.90
39875;DHT22;25547;52.530;13.194;2023-01-08T05:38:38;7.30;99.90
39875;DHT22;25547;52.530;13.194;2023-01-08T05:41:07;7.30;99.90
39875;DHT22;25547;52.530;13.194;2023-01-08T05:43:33;7.30;99.90
39875;DHT22;25547;52.530;13.194;2023-01-08T05:46:00;7.30;99.90
39875;DHT22;25547;52.530;13.194;2023-01-08T05:48:27;7.30;99.90
39875;DHT22;25547;52.530;13.194;2023-01-08T05:50:53;7.40;99.90
39875;DHT22;25547;52.530;13.194;2023-01-08T05:53:19;7.40;99.90
39875;DHT22;25547;52.530;13.194;2023-01-08T05:55:45;7.50;99.90
39875;DHT22;25547;52.530;13.194;2023-01-08T05:58:11;7.50;99.90
39875;DHT22;25547;52.530;13.194;2023-01-08T06:00:39;7.50;99.90
39875;DHT22;25547;52.530;13.194;2023-01-08T06:03:09;7.50;99.90
39875;DHT22;25547;52.530;13.194;2023-01-08T06:05:37;7.50;99.90
39875;DHT22;25547;52.530;13.194;2023-01-08T06:08:05;7.50;99.90
39875;DHT22;25547;52.530;13.194;2023-01-08T06:10:33;7.50;99.90
39875;DHT22;25547;52.530;13.194;2023-01-08T06:13:06;7.50;99.90
39875;DHT22;25547;52.530;13.194;2023-01-08T06:15:34;7.60;99.90
39875;DHT22;25547;52.530;13.194;2023-01-08T06:18:03;7.60;99.90
39875;DHT22;25547;52.530;13.194;2023-01-08T06:20:29;7.60;99.90
39875;DHT22;25547;52.530;13.194;2023-01-08T06:22:54;7.60;99.90
39875;DHT22;25547;52.530;13.194;2023-01-08T06:25:20;7.60;99.90
39875;DHT22;25547;52.530;13.194;2023-01-08T06:27:50;7.50;99.90
39875;DHT22;25547;52.530;13.194;2023-01-08T06:30:16;7.60;99.90
39875;DHT22;25547;52.530;13.194;2023-01-08T06:32:42;7.70;99.90
39875;DHT22;25547;52.530;13.194;2023-01-08T06:35:07;7.70;99.90
39875;DHT22;25547;52.530;13.194;2023-01-08T06:37:33;7.70;99.90
39875;DHT22;25547;52.530;13.194;2023-01-08T06:40:01;7.80;99.90
39875;DHT22;25547;52.530;13.194;2023-01-08T06:42:26;7.80;99.90
39875;DHT22;25547;52.530;13.194;2023-01-08T06:44:52;7.80;99.90
39875;DHT22;25547;52.530;13.194;2023-01-08T06:47:18;7.80;99.90
39875;DHT22;25547;52.530;13.194;2023-01-08T06:49:44;7.80;99.90
39875;DHT22;25547;52.530;13.194;2023-01-08T06:52:10;7.80;99.90
39875;DHT22;25547;52.530;13.194;2023-01-08T06:54:36;7.90;99.90
39875;DHT22;25547;52.530;13.194;2023-01-08T06:57:01;7.90;99.90
39875;DHT22;25547;52.530;13.194;2023-01-08T06:59:29;7.90;99.90
39875;DHT22;25547;52.530;13.194;2023-01-08T07:01:59;7.90;99.90
39875;DHT22;25547;52.530;13.194;2023-01-08T07:04:25;7.90;99.90
39875;DHT22;25547;52.530;13.194;2023-01-08T07:06:50;7.90;99.90
39875;DHT22;25547;52.530;13.194;2023-01-08T07:09:18;7.90;99.90
39875;DHT22;25547;52.530;13.194;2023-01-08T07:11:44;7.90;99.90
39875;DHT22;25547;52.530;13.194;2023-01-08T07:14:10;8.00;99.90
39875;DHT22;25547;52.530;13.194;2023-01-08T07:16:36;8.00;99.90
39875;DHT22;25547;52.530;13.194;2023-01-08T07:19:01;8.00;99.90
39875;DHT22;25547;52.530;13.194;2023-01-08T07:21:27;8.00;99.90
39875;DHT22;25547;52.530;13.194;2023-01-08T07:23:55;8.00;99.90
39875;DHT22;25547;52.530;13.194;2023-01-08T07:26:21;8.10;99.90
39875;DHT22;25547;52.530;13.194;2023-01-08T07:28:49;8.10;99.90
39875;DHT22;25547;52.530;13.194;2023-01-08T07:31:14;8.00;99.90
39875;DHT22;25547;52.530;13.194;2023-01-08T07:33:40;8.00;99.90
39875;DHT22;25547;52.530;13.194;2023-01-08T07:36:06;8.00;99.90
39875;DHT22;25547;52.530;13.194;2023-01-08T07:38:34;7.90;99.90
39875;DHT22;25547;52.530;13.194;2023-01-08T07:40:59;7.90;99.90
39875;DHT22;25547;52.530;13.194;2023-01-08T07:43:25;7.90;99.90
39875;DHT22;25547;52.530;13.194;2023-01-08T07:45:51;7.90;99.90
39875;DHT22;25547;52.530;13.194;2023-01-08T07:48:16;7.90;99.90
39875;DHT22;25547;52.530;13.194;2023-01-08T07:50:44;7.80;99.90
39875;DHT22;25547;52.530;13.194;2023-01-08T07:53:12;7.90;99.90
39875;DHT22;25547;52.530;13.194;2023-01-08T07:55:38;7.90;99.90
39875;DHT22;25547;52.530;13.194;2023-01-08T07:58:11;7.90;99.90
39875;DHT22;25547;52.530;13.194;2023-01-08T08:00:39;8.00;99.90
39875;DHT22;25547;52.530;13.194;2023-01-08T08:03:10;8.00;99.90
39875;DHT22;25547;52.530;13.194;2023-01-08T08:05:40;8.00;99.90
39875;DHT22;25547;52.530;13.194;2023-01-08T08:08:08;7.90;99.90
39875;DHT22;25547;52.530;13.194;2023-01-08T08:10:37;7.90;99.90
39875;DHT22;25547;52.530;13.194;2023-01-08T08:13:06;7.90;99.90
39875;DHT22;25547;52.530;13.194;2023-01-08T08:15:32;7.90;99.90
39875;DHT22;25547;52.530;13.194;2023-01-08T08:17:58;7.90;99.90
39875;DHT22;25547;52.530;13.194;2023-01-08T08:20:24;7.90;99.90
39875;DHT22;25547;52.530;13.194;2023-01-08T08:22:49;7.80;99.90
39875;DHT22;25547;52.530;13.194;2023-01-08T08:25:15;7.80;99.90
39875;DHT22;25547;52.530;13.194;2023-01-08T08:27:42;7.80;99.90
39875;DHT22;25547;52.530;13.194;2023-01-08T08:30:11;7.80;99.90
39875;DHT22;25547;52.530;13.194;2023-01-08T08:32:37;7.80;99.90
39875;DHT22;25547;52.530;13.194;2023-01-08T08:35:04;7.80;99.90
39875;DHT22;25547;52.530;13.194;2023-01-08T08:37:29;7.80;99.90
39875;DHT22;25547;52.530;13.194;2023-01-08T08:39:55;7.80;99.90
39875;DHT22;25547;52.530;13.194;2023-01-08T08:42:23;7.90;99.90
39875;DHT22;25547;52.530;13.194;2023-01-08T08:44:48;7.90;99.90
39875;DHT22;25547;52.530;13.194;2023-01-08T08:47:14;7.80;99.90
39875;DHT22;25547;52.530;13.194;2023-01-08T08:49:40;7.90;99.90
39875;DHT22;25547;52.530;13.194;2023-01-08T08:52:06;7.90;99.90
39875;DHT22;25547;52.530;13.194;2023-01-08T08:54:31;7.90;99.90
39875;DHT22;25547;52.530;13.194;2023-01-08T08:56:57;7.90;99.90
39875;DHT22;25547;52.530;13.194;2023-01-08T08:59:25;7.90;99.90
39875;DHT22;25547;52.530;13.194;2023-01-08T09:01:53;7.90;99.90
39875;DHT22;25547;52.530;13.194;2023-01-08T09:04:18;7.90;99.90
39875;DHT22;25547;52.530;13.194;2023-01-08T09:06:44;7.90;99.90
39875;DHT22;25547;52.530;13.194;2023-01-08T09:09:09;7.90;99.90
39875;DHT22;25547;52.530;13.194;2023-01-08T09:11:35;7.90;99.90
39875;DHT22;25547;52.530;13.194;2023-01-08T09:14:01;8.00;99.90
39875;DHT22;25547;52.530;13.194;2023-01-08T09:16:26;8.00;99.90
39875;DHT22;25547;52.530;13.194;2023-01-08T09:18:54;8.10;99.90
39875;DHT22;25547;52.530;13.194;2023-01-08T09:21:20;8.10;99.90
39875;DHT22;25547;52.530;13.194;2023-01-08T09:23:48;8.10;99.90
39875;DHT22;25547;52.530;13.194;2023-01-08T09:26:17;8.10;99.90
39875;DHT22;25547;52.530;13.194;2023-01-08T09:28:42;8.10;99.90
39875;DHT22;25547;52.530;13.194;2023-01-08T09:31:08;8.20;99.90
39875;DHT22;25547;52.530;13.194;2023-01-08T09:33:33;8.20;99.90
39875;DHT22;25547;52.530;13.194;2023-01-08T09:35:59;8.20;99.90
39875;DHT22;25547;52.530;13.194;2023-01-08T09:38:25;8.10;99.90
39875;DHT22;25547;52.530;13.194;2023-01-08T09:43:51;8.10;99.90
39875;DHT22;25547;52.530;13.194;2023-01-08T09:46:18;8.10;99.90
39875;DHT22;25547;52.530;13.194;2023-01-08T09:48:48;8.20;99.90
39875;DHT22;25547;52.530;13.194;2023-01-08T09:51:17;8.10;99.90
39875;DHT22;25547;52.530;13.194;2023-01-08T09:53:43;8.10;99.90
39875;DHT22;25547;52.530;13.194;2023-01-08T09:56:15;8.20;99.90
39875;DHT22;25547;52.530;13.194;2023-01-08T09:58:48;8.20;99.90
39875;DHT22;25547;52.530;13.194;2023-01-08T10:01:17;8.20;99.90
39875;DHT22;25547;52.530;13.194;2023-01-08T10:04:09;8.10;99.90
39875;DHT22;25547;52.530;13.194;2023-01-08T10:06:39;8.10;99.90
39875;DHT22;25547;52.530;13.194;2023-01-08T10:09:11;8.20;99.90
39875;DHT22;25547;52.530;13.194;2023-01-08T10:11:44;8.20;99.90
39875;DHT22;25547;52.530;13.194;2023-01-08T10:14:26;8.30;99.90
39875;DHT22;25547;52.530;13.194;2023-01-08T10:16:57;8.30;99.90
39875;DHT22;25547;52.530;13.194;2023-01-08T10:19:24;8.30;99.90
39875;DHT22;25547;52.530;13.194;2023-01-08T10:21:50;8.30;99.90
39875;DHT22;25547;52.530;13.194;2023-01-08T10:24:16;8.30;99.90
39875;DHT22;25547;52.530;13.194;2023-01-08T10:26:44;8.50;99.90
39875;DHT22;25547;52.530;13.194;2023-01-08T10:29:15;8.40;99.90
39875;DHT22;25547;52.530;13.194;2023-01-08T10:31:49;8.40;99.90
39875;DHT22;25547;52.530;13.194;2023-01-08T10:34:45;8.50;99.90
39875;DHT22;25547;52.530;13.194;2023-01-08T10:37:38;8.40;99.90
39875;DHT22;25547;52.530;13.194;2023-01-08T10:42:51;8.50;99.90
39875;DHT22;25547;52.530;13.194;2023-01-08T10:45:35;8.50;99.90
39875;DHT22;25547;52.530;13.194;2023-01-08T10:48:04;8.60;99.90
39875;DHT22;25547;52.530;13.194;2023-01-08T10:50:32;8.60;99.90
39875;DHT22;25547;52.530;13.194;2023-01-08T10:53:04;8.70;99.90
39875;DHT22;25547;52.530;13.194;2023-01-08T10:55:33;8.70;99.90
39875;DHT22;25547;52.530;13.194;2023-01-08T10:58:14;8.60;99.90
39875;DHT22;25547;52.530;13.194;2023-01-08T11:00:42;8.60;99.90
39875;DHT22;25547;52.530;13.194;2023-01-08T11:03:30;8.60;99.90
39875;DHT22;25547;52.530;13.194;2023-01-08T11:05:56;8.60;99.90
39875;DHT22;25547;52.530;13.194;2023-01-08T11:08:23;8.60;99.90
39875;DHT22;25547;52.530;13.194;2023-01-08T11:10:57;8.60;99.90
39875;DHT22;25547;52.530;13.194;2023-01-08T11:13:28;8.70;99.90
39875;DHT22;25547;52.530;13.194;2023-01-08T11:16:04;8.80;99.90
39875;DHT22;25547;52.530;13.194;2023-01-08T11:18:42;8.80;99.90
39875;DHT22;25547;52.530;13.194;2023-01-08T11:21:24;8.80;99.90
39875;DHT22;25547;52.530;13.194;2023-01-08T11:24:17;8.70;99.90
39875;DHT22;25547;52.530;13.194;2023-01-08T11:29:57;8.70;99.90
39875;DHT22;25547;52.530;13.194;2023-01-08T11:37:34;8.80;99.90
39875;DHT22;25547;52.530;13.194;2023-01-08T11:40:02;8.90;99.90
39875;DHT22;25547;52.530;13.194;2023-01-08T11:45:23;8.80;99.90
39875;DHT22;25547;52.530;13.194;2023-01-08T12:16:36;8.70;99.90
39875;DHT22;25547;52.530;13.194;2023-01-08T12:19:21;8.80;99.90
39875;DHT22;25547;52.530;13.194;2023-01-08T12:40:47;8.80;99.90
39875;DHT22;25547;52.530;13.194;2023-01-08T12:43:38;8.90;99.90
39875;DHT22;25547;52.530;13.194;2023-01-08T12:46:13;8.90;99.90
39875;DHT22;25547;52.530;13.194;2023-01-08T12:48:43;8.90;99.90
39875;DHT22;25547;52.530;13.194;2023-01-08T12:53:59;8.90;99.90
39875;DHT22;25547;52.530;13.194;2023-01-08T12:57:18;8.90;99.90
39875;DHT22;25547;52.530;13.194;2023-01-08T13:04:57;8.70;99.90
39875;DHT22;25547;52.530;13.194;2023-01-08T13:07:30;8.70;99.90
39875;DHT22;25547;52.530;13.194;2023-01-08T13:10:03;8.70;99.90
39875;DHT22;25547;52.530;13.194;2023-01-08T13:12:35;8.80;99.90
39875;DHT22;25547;52.530;13.194;2023-01-08T13:15:02;8.70;99.90
39875;DHT22;25547;52.530;13.194;2023-01-08T13:17:31;8.80;99.90
39875;DHT22;25547;52.530;13.194;2023-01-08T13:20:04;8.70;99.90
39875;DHT22;25547;52.530;13.194;2023-01-08T13:22:31;8.70;99.90
39875;DHT22;25547;52.530;13.194;2023-01-08T13:27:44;8.60;99.90
39875;DHT22;25547;52.530;13.194;2023-01-08T13:32:59;8.60;99.90
39875;DHT22;25547;52.530;13.194;2023-01-08T13:35:29;8.60;99.90
39875;DHT22;25547;52.530;13.194;2023-01-08T13:38:16;8.60;99.90
39875;DHT22;25547;52.530;13.194;2023-01-08T13:51:31;8.60;99.90
39875;DHT22;25547;52.530;13.194;2023-01-08T13:56:52;8.60;99.90
39875;DHT22;25547;52.530;13.194;2023-01-08T13:59:35;8.60;99.90
39875;DHT22;25547;52.530;13.194;2023-01-08T14:02:36;8.60;99.90
39875;DHT22;25547;52.530;13.194;2023-01-08T14:05:17;8.50;99.90
39875;DHT22;25547;52.530;13.194;2023-01-08T14:07:43;8.50;99.90
39875;DHT22;25547;52.530;13.194;2023-01-08T14:10:17;8.60;99.90
39875;DHT22;25547;52.530;13.194;2023-01-08T14:12:43;8.60;99.90
39875;DHT22;25547;52.530;13.194;2023-01-08T14:15:22;8.60;99.90
39875;DHT22;25547;52.530;13.194;2023-01-08T14:17:54;8.60;99.90
39875;DHT22;25547;52.530;13.194;2023-01-08T14:20:33;8.70;99.90
39875;DHT22;25547;52.530;13.194;2023-01-08T14:23:01;8.60;99.90
39875;DHT22;25547;52.530;13.194;2023-01-08T14:25:27;8.60;99.90
39875;DHT22;25547;52.530;13.194;2023-01-08T14:27:58;8.60;99.90
39875;DHT22;25547;52.530;13.194;2023-01-08T14:30:25;8.60;99.90
39875;DHT22;25547;52.530;13.194;2023-01-08T14:32:51;8.60;99.90
39875;DHT22;25547;52.530;13.194;2023-01-08T14:35:20;8.60;99.90
39875;DHT22;25547;52.530;13.194;2023-01-08T14:37:52;8.60;99.90
39875;DHT22;25547;52.530;13.194;2023-01-08T14:40:30;8.60;99.90
39875;DHT22;25547;52.530;13.194;2023-01-08T14:42:58;8.50;99.90
39875;DHT22;25547;52.530;13.194;2023-01-08T14:45:31;8.60;99.90
39875;DHT22;25547;52.530;13.194;2023-01-08T14:50:43;8.60;99.90
39875;DHT22;25547;52.530;13.194;2023-01-08T14:53:48;8.60;99.90
39875;DHT22;25547;52.530;13.194;2023-01-08T14:56:22;8.60;99.90
39875;DHT22;25547;52.530;13.194;2023-01-08T14:58:49;8.60;99.90
39875;DHT22;25547;52.530;13.194;2023-01-08T15:01:18;8.60;99.90
39875;DHT22;25547;52.530;13.194;2023-01-08T15:03:46;8.60;99.90
39875;DHT22;25547;52.530;13.194;2023-01-08T15:06:29;8.60;99.90
39875;DHT22;25547;52.530;13.194;2023-01-08T15:08:57;8.60;99.90
39875;DHT22;25547;52.530;13.194;2023-01-08T15:11:24;8.60;99.90
39875;DHT22;25547;52.530;13.194;2023-01-08T15:13:50;8.50;99.90
39875;DHT22;25547;52.530;13.194;2023-01-08T15:16:27;8.50;99.90
39875;DHT22;25547;52.530;13.194;2023-01-08T15:21:34;8.50;99.90
39875;DHT22;25547;52.530;13.194;2023-01-08T15:24:01;8.40;99.90
39875;DHT22;25547;52.530;13.194;2023-01-08T15:26:27;8.50;99.90
39875;DHT22;25547;52.530;13.194;2023-01-08T15:29:03;8.50;99.90
39875;DHT22;25547;52.530;13.194;2023-01-08T15:34:09;8.50;99.90
39875;DHT22;25547;52.530;13.194;2023-01-08T15:36:37;8.50;99.90
39875;DHT22;25547;52.530;13.194;2023-01-08T15:39:03;8.40;99.90
39875;DHT22;25547;52.530;13.194;2023-01-08T15:41:34;8.40;99.90
39875;DHT22;25547;52.530;13.194;2023-01-08T15:44:21;8.40;99.90
39875;DHT22;25547;52.530;13.194;2023-01-08T15:46:49;8.40;99.90
39875;DHT22;25547;52.530;13.194;2023-01-08T15:49:15;8.40;99.90
39875;DHT22;25547;52.530;13.194;2023-01-08T15:51:44;8.40;99.90
39875;DHT22;25547;52.530;13.194;2023-01-08T15:54:12;8.40;99.90
39875;DHT22;25547;52.530;13.194;2023-01-08T15:56:43;8.50;99.90
39875;DHT22;25547;52.530;13.194;2023-01-08T15:59:08;8.50;99.90
39875;DHT22;25547;52.530;13.194;2023-01-08T16:01:38;8.50;99.90
39875;DHT22;25547;52.530;13.194;2023-01-08T16:04:05;8.50;99.90
39875;DHT22;25547;52.530;13.194;2023-01-08T16:06:31;8.60;99.90
39875;DHT22;25547;52.530;13.194;2023-01-08T16:08:57;8.60;99.90
39875;DHT22;25547;52.530;13.194;2023-01-08T16:11:33;8.60;99.90
39875;DHT22;25547;52.530;13.194;2023-01-08T16:13:59;8.50;99.90
39875;DHT22;25547;52.530;13.194;2023-01-08T16:16:25;8.50;99.90
39875;DHT22;25547;52.530;13.194;2023-01-08T16:18:50;8.50;99.90
39875;DHT22;25547;52.530;13.194;2023-01-08T16:21:19;8.40;99.90
39875;DHT22;25547;52.530;13.194;2023-01-08T16:23:44;8.40;99.90
39875;DHT22;25547;52.530;13.194;2023-01-08T16:26:14;8.40;99.90
39875;DHT22;25547;52.530;13.194;2023-01-08T16:28:40;8.40;99.90
39875;DHT22;25547;52.530;13.194;2023-01-08T16:31:06;8.40;99.90
39875;DHT22;25547;52.530;13.194;2023-01-08T16:33:32;8.40;99.90
39875;DHT22;25547;52.530;13.194;2023-01-08T16:36:05;8.40;99.90
39875;DHT22;25547;52.530;13.194;2023-01-08T16:38:32;8.40;99.90
39875;DHT22;25547;52.530;13.194;2023-01-08T16:40:58;8.40;99.90
39875;DHT22;25547;52.530;13.194;2023-01-08T16:43:25;8.40;99.90
39875;DHT22;25547;52.530;13.194;2023-01-08T16:45:51;8.40;99.90
39875;DHT22;25547;52.530;13.194;2023-01-08T16:48:17;8.40;99.90
39875;DHT22;25547;52.530;13.194;2023-01-08T16:50:45;8.40;99.90
39875;DHT22;25547;52.530;13.194;2023-01-08T16:53:11;8.40;99.90
39875;DHT22;25547;52.530;13.194;2023-01-08T16:55:38;8.40;99.90
39875;DHT22;25547;52.530;13.194;2023-01-08T16:58:04;8.40;99.90
39875;DHT22;25547;52.530;13.194;2023-01-08T17:00:31;8.40;99.90
39875;DHT22;25547;52.530;13.194;2023-01-08T17:02:57;8.40;99.90
39875;DHT22;25547;52.530;13.194;2023-01-08T17:05:24;8.30;99.90
39875;DHT22;25547;52.530;13.194;2023-01-08T17:07:55;8.30;99.90
39875;DHT22;25547;52.530;13.194;2023-01-08T17:10:24;8.30;99.90
39875;DHT22;25547;52.530;13.194;2023-01-08T17:12:51;8.30;99.90
39875;DHT22;25547;52.530;13.194;2023-01-08T17:15:17;8.30;99.90
39875;DHT22;25547;52.530;13.194;2023-01-08T17:17:42;8.20;99.90
39875;DHT22;25547;52.530;13.194;2023-01-08T17:20:09;8.20;99.90
39875;DHT22;25547;52.530;13.194;2023-01-08T17:22:35;8.20;99.90
39875;DHT22;25547;52.530;13.194;2023-01-08T17:25:03;8.20;99.90
39875;DHT22;25547;52.530;13.194;2023-01-08T17:27:29;8.10;99.90
39875;DHT22;25547;52.530;13.194;2023-01-08T17:29:55;8.10;99.90
39875;DHT22;25547;52.530;13.194;2023-01-08T17:32:23;8.10;99.90
39875;DHT22;25547;52.530;13.194;2023-01-08T17:34:50;8.10;99.90
39875;DHT22;25547;52.530;13.194;2023-01-08T17:37:18;8.10;99.90
39875;DHT22;25547;52.530;13.194;2023-01-08T17:39:49;8.00;99.90
39875;DHT22;25547;52.530;13.194;2023-01-08T17:42:17;8.10;99.90
39875;DHT22;25547;52.530;13.194;2023-01-08T17:44:50;8.10;99.90
39875;DHT22;25547;52.530;13.194;2023-01-08T17:47:16;8.10;99.90
39875;DHT22;25547;52.530;13.194;2023-01-08T17:49:51;8.00;99.90
39875;DHT22;25547;52.530;13.194;2023-01-08T17:52:19;8.00;99.90